createdAt,value
2024-04-18T00:01:36.941Z,6.41
2024-04-18T00:04:04.115Z,6.39
2024-04-18T00:06:31.340Z,6.38
2024-04-18T00:08:58.304Z,6.34
2024-04-18T00:11:25.513Z,6.32
2024-04-18T00:13:52.569Z,6.32
2024-04-18T00:16:19.516Z,6.32
2024-04-18T00:18:46.513Z,6.30
2024-04-18T00:21:13.507Z,6.35
2024-04-18T00:23:40.453Z,6.22
2024-04-18T00:26:08.442Z,6.03
2024-04-18T00:28:35.423Z,6.12
2024-04-18T00:31:02.416Z,6.14
2024-04-18T00:33:29.429Z,6.21
2024-04-18T00:35:56.433Z,6.22
2024-04-18T00:38:23.448Z,6.22
2024-04-18T00:40:50.432Z,6.25
2024-04-18T00:43:21.510Z,6.28
2024-04-18T00:45:49.079Z,6.34
2024-04-18T00:48:16.794Z,6.33
2024-04-18T00:50:44.275Z,6.39
2024-04-18T00:53:11.501Z,6.37
2024-04-18T00:55:41.927Z,6.47
2024-04-18T00:58:13.046Z,5.94
2024-04-18T01:00:41.892Z,5.97
2024-04-18T01:03:08.918Z,6.17
2024-04-18T01:05:37.037Z,6.02
2024-04-18T01:08:05.031Z,5.83
2024-04-18T01:10:31.998Z,5.97
2024-04-18T01:13:02.741Z,5.95
2024-04-18T01:15:30.152Z,6.01
2024-04-18T01:17:57.348Z,6.10
2024-04-18T01:20:26.444Z,6.13
2024-04-18T01:22:53.460Z,6.19
2024-04-18T01:25:20.601Z,6.19
2024-04-18T01:27:47.772Z,6.20
2024-04-18T01:30:14.909Z,6.13
2024-04-18T01:32:42.097Z,6.06
2024-04-18T01:35:09.325Z,6.11
2024-04-18T01:37:36.320Z,6.09
2024-04-18T01:40:03.488Z,6.12
2024-04-18T01:42:30.502Z,6.01
2024-04-18T01:44:57.489Z,6.00
2024-04-18T01:47:24.455Z,6.03
2024-04-18T01:49:51.524Z,6.08
2024-04-18T01:52:18.499Z,5.93
2024-04-18T01:54:45.826Z,5.99
2024-04-18T01:57:12.891Z,6.15
2024-04-18T01:59:39.862Z,6.19
2024-04-18T02:02:06.851Z,6.27
2024-04-18T02:04:33.918Z,6.31
2024-04-18T02:07:01.279Z,6.39
2024-04-18T02:09:28.290Z,6.44
2024-04-18T02:11:55.377Z,6.50
2024-04-18T02:14:22.358Z,6.58
2024-04-18T02:16:49.390Z,6.64
2024-04-18T02:19:16.447Z,6.69
2024-04-18T02:21:43.574Z,6.75
2024-04-18T02:24:10.555Z,6.80
2024-04-18T02:26:37.539Z,6.86
2024-04-18T02:29:04.564Z,6.88
2024-04-18T02:31:31.673Z,6.86
2024-04-18T02:33:58.690Z,6.90
2024-04-18T02:36:25.756Z,6.80
2024-04-18T02:38:52.920Z,6.79
2024-04-18T02:41:20.134Z,6.76
2024-04-18T02:43:49.526Z,6.78
2024-04-18T02:46:16.507Z,6.84
2024-04-18T02:48:43.515Z,6.84
2024-04-18T02:51:10.693Z,6.78
2024-04-18T02:53:37.663Z,6.77
2024-04-18T02:56:05.161Z,6.78
2024-04-18T02:58:32.448Z,6.76
2024-04-18T03:01:04.899Z,6.78
2024-04-18T03:03:32.102Z,6.82
2024-04-18T03:06:05.709Z,6.83
2024-04-18T03:08:32.907Z,6.93
2024-04-18T03:10:59.898Z,6.96
2024-04-18T03:13:26.844Z,6.98
2024-04-18T03:15:53.943Z,7.05
2024-04-18T03:18:21.027Z,7.12
2024-04-18T03:20:54.501Z,7.12
2024-04-18T03:23:21.506Z,7.06
2024-04-18T03:25:50.892Z,7.00
2024-04-18T03:28:17.868Z,6.98
2024-04-18T03:30:45.000Z,6.97
2024-04-18T03:33:12.151Z,7.00
2024-04-18T03:35:40.212Z,6.88
2024-04-18T03:38:07.616Z,6.84
2024-04-18T03:40:35.527Z,6.86
2024-04-18T03:43:02.687Z,6.78
2024-04-18T03:45:30.256Z,6.70
2024-04-18T03:47:57.366Z,6.67
2024-04-18T03:50:24.398Z,6.54
2024-04-18T03:52:51.353Z,6.57
2024-04-18T03:55:18.415Z,6.64
2024-04-18T03:57:45.499Z,6.58
2024-04-18T04:00:13.001Z,6.70
2024-04-18T04:02:40.536Z,6.48
2024-04-18T04:05:07.768Z,6.55
2024-04-18T04:07:34.742Z,6.52
2024-04-18T04:10:01.781Z,6.44
2024-04-18T04:12:28.812Z,6.60
2024-04-18T04:14:55.853Z,6.66
2024-04-18T04:17:22.850Z,6.62
2024-04-18T04:19:49.821Z,6.44
2024-04-18T04:22:17.326Z,6.59
2024-04-18T04:24:44.430Z,6.46
2024-04-18T04:27:11.422Z,6.54
2024-04-18T04:29:38.564Z,6.52
2024-04-18T04:32:05.620Z,6.50
2024-04-18T04:34:32.581Z,6.63
2024-04-18T04:36:59.603Z,6.74
2024-04-18T04:39:26.619Z,6.67
2024-04-18T04:41:53.629Z,6.61
2024-04-18T04:44:20.623Z,6.65
2024-04-18T04:46:47.587Z,6.79
2024-04-18T04:49:14.696Z,6.84
2024-04-18T04:51:41.761Z,6.99
2024-04-18T04:54:08.797Z,6.99
2024-04-18T04:56:35.742Z,7.01
2024-04-18T04:59:02.719Z,7.17
2024-04-18T05:01:29.756Z,7.02
2024-04-18T05:03:56.824Z,7.23
2024-04-18T05:06:24.887Z,7.36
2024-04-18T05:08:52.031Z,7.35
2024-04-18T05:11:19.052Z,7.46
2024-04-18T05:13:46.050Z,7.49
2024-04-18T05:16:13.085Z,7.60
2024-04-18T05:18:40.432Z,7.68
2024-04-18T05:21:07.461Z,7.67
2024-04-18T05:23:34.614Z,7.68
2024-04-18T05:26:01.619Z,7.69
2024-04-18T05:28:41.629Z,7.56
2024-04-18T05:31:09.352Z,7.68
2024-04-18T05:33:36.496Z,7.72
2024-04-18T05:36:05.485Z,7.80
2024-04-18T05:38:32.521Z,7.85
2024-04-18T05:40:59.551Z,7.78
2024-04-18T05:43:26.617Z,7.78
2024-04-18T05:45:54.830Z,7.75
2024-04-18T05:48:21.997Z,7.72
2024-04-18T05:50:49.002Z,7.86
2024-04-18T05:53:15.989Z,7.88
2024-04-18T05:55:42.972Z,7.76
2024-04-18T05:58:10.277Z,7.91
2024-04-18T06:00:37.606Z,8.00
2024-04-18T06:03:06.147Z,8.01
2024-04-18T06:05:33.206Z,8.15
2024-04-18T06:08:00.159Z,8.05
2024-04-18T06:10:27.183Z,8.00
2024-04-18T06:12:54.172Z,8.12
2024-04-18T06:15:21.219Z,8.21
2024-04-18T06:17:48.270Z,8.24
2024-04-18T06:20:15.431Z,8.39
2024-04-18T06:22:42.440Z,8.36
2024-04-18T06:25:10.430Z,8.22
2024-04-18T06:27:37.466Z,8.26
2024-04-18T06:30:05.015Z,8.36
2024-04-18T06:32:32.170Z,8.47
2024-04-18T06:34:59.178Z,8.53
2024-04-18T06:37:27.174Z,8.59
2024-04-18T06:39:54.332Z,8.10
2024-04-18T06:42:21.564Z,8.42
2024-04-18T06:44:48.582Z,8.49
2024-04-18T06:47:15.711Z,8.44
2024-04-18T06:49:42.738Z,8.55
2024-04-18T06:52:09.750Z,8.58
2024-04-18T06:54:36.768Z,8.19
2024-04-18T06:57:03.939Z,8.51
2024-04-18T06:59:30.970Z,8.68
2024-04-18T07:01:57.943Z,8.66
2024-04-18T07:04:24.987Z,8.67
2024-04-18T07:06:52.080Z,8.71
2024-04-18T07:09:19.460Z,8.82
2024-04-18T07:11:46.487Z,8.80
2024-04-18T07:14:13.583Z,8.62
2024-04-18T07:16:40.793Z,8.89
2024-04-18T07:19:07.790Z,8.68
2024-04-18T07:21:34.838Z,8.79
2024-04-18T07:24:02.203Z,8.94
2024-04-18T07:26:29.370Z,8.97
2024-04-18T07:28:56.328Z,8.79
2024-04-18T07:31:23.343Z,8.81
2024-04-18T07:33:50.383Z,9.03
2024-04-18T07:36:22.502Z,9.35
2024-04-18T07:38:53.147Z,9.52
2024-04-18T07:41:20.329Z,9.60
2024-04-18T07:43:47.285Z,9.71
2024-04-18T07:46:15.191Z,9.47
2024-04-18T07:48:42.435Z,9.53
2024-04-18T07:51:09.470Z,9.64
2024-04-18T07:53:36.906Z,9.74
2024-04-18T07:56:05.845Z,9.67
2024-04-18T07:58:33.397Z,9.59
2024-04-18T08:01:02.186Z,9.57
2024-04-18T08:03:31.651Z,9.42
2024-04-18T08:06:02.266Z,9.32
2024-04-18T08:08:34.530Z,9.20
2024-04-18T08:11:25.812Z,9.11
2024-04-18T08:13:54.685Z,9.17
2024-04-18T08:16:24.543Z,9.38
2024-04-18T08:18:51.627Z,9.56
2024-04-18T08:21:18.664Z,9.82
2024-04-18T08:23:52.564Z,10.07
2024-04-18T08:26:19.715Z,10.15
2024-04-18T08:28:46.688Z,10.39
2024-04-18T08:31:13.663Z,10.48
2024-04-18T08:33:46.732Z,10.30
2024-04-18T08:36:17.942Z,10.77
2024-04-18T08:38:44.982Z,10.73
2024-04-18T08:41:14.326Z,11.09
2024-04-18T08:43:43.541Z,11.07
2024-04-18T08:46:12.998Z,11.34
2024-04-18T08:48:40.490Z,11.28
2024-04-18T08:51:08.931Z,11.34
2024-04-18T08:53:36.101Z,11.24
2024-04-18T08:56:10.391Z,11.37
2024-04-18T08:58:37.847Z,11.63
2024-04-18T09:01:04.896Z,11.61
2024-04-18T09:03:34.646Z,11.69
2024-04-18T09:06:03.537Z,11.94
2024-04-18T09:08:30.584Z,12.17
2024-04-18T09:11:00.414Z,12.46
2024-04-18T09:13:27.425Z,12.59
2024-04-18T09:15:54.377Z,12.83
2024-04-18T09:18:21.557Z,12.97
2024-04-18T09:20:49.505Z,12.77
2024-04-18T09:23:17.548Z,13.14
2024-04-18T09:25:45.924Z,13.23
2024-04-18T09:28:13.108Z,12.64
2024-04-18T09:30:40.733Z,12.22
2024-04-18T09:33:09.006Z,11.61
2024-04-18T09:35:37.079Z,11.37
2024-04-18T09:38:10.222Z,11.18
2024-04-18T09:40:45.711Z,10.74
2024-04-18T09:43:32.812Z,10.77
2024-04-18T09:46:07.105Z,10.85
2024-04-18T09:48:34.483Z,11.08
2024-04-18T09:51:04.281Z,11.10
2024-04-18T09:53:31.519Z,11.34
2024-04-18T09:56:01.637Z,11.58
2024-04-18T09:58:29.513Z,11.46
2024-04-18T10:00:59.991Z,11.63
2024-04-18T10:03:29.276Z,11.65
2024-04-18T10:06:00.896Z,11.89
2024-04-18T10:08:51.917Z,12.22
2024-04-18T10:11:25.844Z,11.79
2024-04-18T10:13:53.103Z,12.45
2024-04-18T10:16:21.218Z,12.76
2024-04-18T10:18:51.500Z,13.19
2024-04-18T10:21:32.196Z,14.88
2024-04-18T10:24:06.847Z,15.92
2024-04-18T10:26:36.728Z,15.99
2024-04-18T10:29:03.796Z,16.32
2024-04-18T10:31:31.064Z,15.46
2024-04-18T10:33:58.888Z,15.08
2024-04-18T10:36:27.509Z,15.47
2024-04-18T10:38:54.822Z,14.96
2024-04-18T10:41:25.567Z,14.53
2024-04-18T10:43:52.903Z,14.39
2024-04-18T10:46:20.728Z,14.24
2024-04-18T10:48:54.996Z,14.29
2024-04-18T10:51:22.268Z,13.29
2024-04-18T10:53:49.295Z,13.01
2024-04-18T10:56:16.550Z,13.05
2024-04-18T10:58:43.823Z,13.49
2024-04-18T11:01:10.840Z,13.79
2024-04-18T11:03:38.023Z,13.56
2024-04-18T11:06:05.242Z,14.24
2024-04-18T11:08:35.131Z,14.69
2024-04-18T11:11:04.724Z,14.99
2024-04-18T11:13:31.886Z,14.44
2024-04-18T11:15:59.000Z,14.45
2024-04-18T11:18:26.298Z,14.41
2024-04-18T11:20:54.011Z,13.81
2024-04-18T11:23:35.289Z,13.61
2024-04-18T11:26:14.271Z,14.31
2024-04-18T11:28:41.652Z,14.10
2024-04-18T11:31:08.680Z,14.92
2024-04-18T11:33:36.392Z,15.48
2024-04-18T11:36:03.828Z,16.11
2024-04-18T11:38:32.780Z,16.94
2024-04-18T11:41:01.503Z,16.84
2024-04-18T11:43:28.584Z,16.65
2024-04-18T11:45:55.979Z,17.33
2024-04-18T11:48:23.123Z,16.37
2024-04-18T11:50:50.246Z,16.63
2024-04-18T11:53:17.242Z,17.24
2024-04-18T11:55:44.208Z,17.65
2024-04-18T11:58:11.185Z,17.78
2024-04-18T12:00:38.260Z,18.81
2024-04-18T12:03:07.166Z,17.69
2024-04-18T12:05:34.189Z,17.70
2024-04-18T12:08:01.221Z,17.38
2024-04-18T12:10:28.220Z,16.58
2024-04-18T12:12:55.353Z,15.33
2024-04-18T12:15:22.354Z,13.80
2024-04-18T12:17:49.435Z,13.30
2024-04-18T12:20:20.612Z,12.89
2024-04-18T12:22:47.758Z,12.56
2024-04-18T12:25:18.785Z,12.26
2024-04-18T12:27:47.006Z,10.91
2024-04-18T12:30:14.050Z,10.82
2024-04-18T12:32:41.098Z,10.67
2024-04-18T12:35:09.244Z,10.92
2024-04-18T12:37:36.265Z,11.20
2024-04-18T12:40:06.361Z,11.24
2024-04-18T12:42:35.221Z,11.12
2024-04-18T12:45:02.465Z,11.63
2024-04-18T12:47:29.732Z,12.72
2024-04-18T12:49:56.993Z,13.38
2024-04-18T12:52:24.084Z,14.02
2024-04-18T12:54:51.125Z,15.17
2024-04-18T12:57:18.199Z,14.83
2024-04-18T12:59:45.211Z,16.01
2024-04-18T13:02:13.193Z,16.77
2024-04-18T13:04:41.048Z,15.77
2024-04-18T13:07:08.141Z,16.51
2024-04-18T13:09:35.278Z,17.30
2024-04-18T13:12:04.184Z,17.74
2024-04-18T13:14:31.430Z,16.69
2024-04-18T13:16:58.597Z,16.80
2024-04-18T13:19:25.624Z,17.10
2024-04-18T13:21:52.605Z,16.25
2024-04-18T13:24:21.196Z,15.52
2024-04-18T13:26:48.204Z,15.28
2024-04-18T13:29:15.214Z,14.13
2024-04-18T13:31:42.339Z,13.34
2024-04-18T13:34:09.683Z,12.69
2024-04-18T13:36:37.445Z,12.49
2024-04-18T13:39:04.595Z,12.27
2024-04-18T13:41:31.739Z,11.96
2024-04-18T13:43:58.698Z,11.41
2024-04-18T13:46:25.727Z,10.76
2024-04-18T13:48:52.853Z,9.93
2024-04-18T13:51:20.375Z,10.17
2024-04-18T13:53:47.535Z,10.01
2024-04-18T13:56:14.538Z,9.92
2024-04-18T13:58:41.586Z,10.01
2024-04-18T14:01:08.575Z,10.09
2024-04-18T14:03:35.850Z,10.22
2024-04-18T14:06:03.131Z,9.99
2024-04-18T14:08:30.425Z,9.86
2024-04-18T14:10:57.380Z,9.73
2024-04-18T14:13:24.530Z,10.23
2024-04-18T14:16:14.021Z,10.15
2024-04-18T14:18:49.813Z,10.49
2024-04-18T14:21:17.803Z,10.24
2024-04-18T14:23:45.385Z,10.24
2024-04-18T14:26:12.377Z,10.41
2024-04-18T14:28:39.539Z,10.20
2024-04-18T14:31:06.551Z,10.08
2024-04-18T14:33:33.746Z,10.19
2024-04-18T14:36:00.975Z,10.56
2024-04-18T14:38:29.759Z,10.76
2024-04-18T14:41:05.568Z,11.10
2024-04-18T14:43:38.219Z,11.12
2024-04-18T14:46:05.365Z,10.48
2024-04-18T14:48:34.648Z,10.69
2024-04-18T14:51:01.868Z,10.89
2024-04-18T14:53:28.942Z,10.80
2024-04-18T14:55:57.108Z,10.92
2024-04-18T14:58:24.200Z,10.67
2024-04-18T15:00:53.044Z,11.19
2024-04-18T15:03:20.875Z,11.09
2024-04-18T15:05:56.405Z,10.86
2024-04-18T15:08:25.091Z,11.06
2024-04-18T15:10:52.392Z,10.80
2024-04-18T15:13:19.454Z,10.72
2024-04-18T15:15:46.520Z,10.21
2024-04-18T15:18:14.750Z,10.32
2024-04-18T15:20:42.139Z,10.75
2024-04-18T15:23:12.544Z,10.45
2024-04-18T15:25:39.492Z,10.67
2024-04-18T15:28:07.003Z,10.71
2024-04-18T15:30:34.248Z,11.11
2024-04-18T15:33:01.319Z,10.83
2024-04-18T15:35:28.326Z,11.48
2024-04-18T15:37:55.323Z,11.56
2024-04-18T15:40:22.284Z,11.75
2024-04-18T15:42:49.304Z,11.91
2024-04-18T15:45:16.452Z,11.90
2024-04-18T15:47:43.581Z,11.91
2024-04-18T15:50:10.670Z,11.83
2024-04-18T15:52:39.684Z,11.93
2024-04-18T15:55:16.043Z,11.63
2024-04-18T15:57:48.711Z,11.65
2024-04-18T16:00:16.068Z,11.57
2024-04-18T16:02:44.810Z,11.57
2024-04-18T16:05:12.961Z,11.45
2024-04-18T16:07:39.934Z,11.30
2024-04-18T16:10:09.058Z,11.03
2024-04-18T16:12:36.370Z,10.93
2024-04-18T16:15:05.799Z,11.03
2024-04-18T16:17:33.814Z,10.71
2024-04-18T16:20:00.986Z,10.89
2024-04-18T16:22:29.461Z,11.05
2024-04-18T16:24:56.456Z,10.64
2024-04-18T16:27:23.590Z,10.88
2024-04-18T16:29:50.611Z,10.94
2024-04-18T16:32:17.598Z,10.85
2024-04-18T16:34:44.584Z,11.18
2024-04-18T16:37:14.129Z,11.47
2024-04-18T16:39:43.468Z,11.35
2024-04-18T16:42:10.573Z,11.69
2024-04-18T16:44:37.633Z,12.03
2024-04-18T16:47:05.033Z,12.30
2024-04-18T16:49:32.028Z,12.17
2024-04-18T16:51:59.262Z,12.34
2024-04-18T16:54:26.375Z,11.96
2024-04-18T16:56:53.677Z,12.14
2024-04-18T16:59:21.493Z,12.68
2024-04-18T17:01:48.515Z,12.91
2024-04-18T17:04:15.613Z,13.13
2024-04-18T17:06:48.062Z,13.06
2024-04-18T17:09:17.596Z,12.88
2024-04-18T17:11:44.964Z,12.70
2024-04-18T17:14:12.043Z,12.29
2024-04-18T17:16:39.682Z,11.88
2024-04-18T17:19:06.834Z,11.64
2024-04-18T17:21:36.399Z,11.51
2024-04-18T17:24:03.917Z,11.23
2024-04-18T17:26:30.995Z,10.81
2024-04-18T17:28:58.177Z,10.70
2024-04-18T17:31:25.254Z,10.49
2024-04-18T17:33:54.948Z,10.38
2024-04-18T17:36:22.528Z,10.36
2024-04-18T17:38:50.808Z,10.28
2024-04-18T17:41:17.876Z,10.15
2024-04-18T17:43:47.130Z,10.07
2024-04-18T17:46:14.466Z,9.79
2024-04-18T17:48:43.858Z,9.64
2024-04-18T17:51:11.191Z,9.58
2024-04-18T17:53:38.292Z,9.54
2024-04-18T17:56:05.766Z,9.43
2024-04-18T17:58:32.900Z,9.35
2024-04-18T18:00:59.941Z,9.21
2024-04-18T18:03:27.018Z,9.12
2024-04-18T18:05:54.109Z,9.06
2024-04-18T18:08:21.066Z,9.06
2024-04-18T18:10:48.140Z,9.03
2024-04-18T18:13:15.094Z,9.01
2024-04-18T18:15:42.138Z,8.95
2024-04-18T18:18:10.026Z,8.95
2024-04-18T18:20:37.246Z,8.89
2024-04-18T18:23:04.500Z,8.82
2024-04-18T18:25:31.475Z,8.77
2024-04-18T18:27:58.456Z,8.71
2024-04-18T18:30:26.038Z,8.70
2024-04-18T18:32:53.242Z,8.62
2024-04-18T18:35:20.249Z,8.61
2024-04-18T18:37:49.486Z,8.60
2024-04-18T18:40:16.602Z,8.57
2024-04-18T18:42:45.485Z,8.54
2024-04-18T18:45:12.656Z,8.52
2024-04-18T18:47:39.826Z,8.51
2024-04-18T18:50:07.915Z,8.50
2024-04-18T18:52:34.959Z,8.47
2024-04-18T18:55:01.979Z,8.43
2024-04-18T18:57:30.070Z,8.45
2024-04-18T18:59:57.245Z,8.45
2024-04-18T19:02:25.090Z,8.44
2024-04-18T19:04:52.172Z,8.52
2024-04-18T19:07:19.226Z,8.53
2024-04-18T19:09:46.343Z,8.55
2024-04-18T19:12:13.564Z,8.59
2024-04-18T19:14:40.583Z,8.59
2024-04-18T19:17:07.822Z,8.63
2024-04-18T19:19:35.132Z,8.63
2024-04-18T19:22:03.982Z,8.59
2024-04-18T19:24:31.115Z,8.55
2024-04-18T19:27:01.619Z,8.62
2024-04-18T19:29:39.647Z,8.60
2024-04-18T19:32:14.213Z,8.56
2024-04-18T19:34:41.408Z,8.55
2024-04-18T19:37:08.451Z,8.36
2024-04-18T19:39:35.624Z,8.31
2024-04-18T19:42:02.835Z,8.17
2024-04-18T19:44:31.463Z,8.14
2024-04-18T19:46:58.820Z,8.15
2024-04-18T19:49:28.308Z,7.88
2024-04-18T19:52:01.546Z,7.95
2024-04-18T19:54:31.096Z,7.87
2024-04-18T19:56:58.160Z,7.88
2024-04-18T19:59:25.195Z,7.89
2024-04-18T20:01:52.150Z,7.83
2024-04-18T20:04:19.439Z,7.76
2024-04-18T20:06:46.616Z,7.71
2024-04-18T20:09:13.680Z,7.65
2024-04-18T20:11:40.791Z,7.62
2024-04-18T20:14:07.822Z,7.57
2024-04-18T20:16:35.275Z,7.67
2024-04-18T20:19:02.557Z,7.59
2024-04-18T20:21:29.796Z,7.51
2024-04-18T20:23:56.754Z,7.47
2024-04-18T20:26:23.759Z,7.44
2024-04-18T20:28:51.647Z,7.39
2024-04-18T20:31:18.684Z,7.38
2024-04-18T20:33:45.979Z,7.32
2024-04-18T20:36:13.054Z,7.31
2024-04-18T20:38:40.072Z,7.27
2024-04-18T20:41:07.042Z,7.23
2024-04-18T20:43:34.018Z,7.24
2024-04-18T20:46:01.081Z,7.21
2024-04-18T20:48:28.218Z,7.22
2024-04-18T20:50:55.292Z,7.29
2024-04-18T20:53:22.346Z,7.23
2024-04-18T20:55:49.317Z,6.87
2024-04-18T20:58:16.380Z,7.01
2024-04-18T21:00:46.825Z,6.97
2024-04-18T21:03:13.962Z,6.92
2024-04-18T21:05:47.388Z,6.88
2024-04-18T21:08:14.887Z,6.97
2024-04-18T21:10:42.941Z,6.58
2024-04-18T21:13:13.810Z,6.89
2024-04-18T21:15:41.197Z,6.94
2024-04-18T21:18:08.725Z,7.07
2024-04-18T21:20:36.235Z,7.35
2024-04-18T21:23:03.240Z,7.34
2024-04-18T21:25:30.286Z,7.24
2024-04-18T21:27:57.281Z,7.38
2024-04-18T21:30:24.255Z,7.39
2024-04-18T21:32:54.281Z,7.43
2024-04-18T21:35:21.609Z,7.38
2024-04-18T21:37:48.611Z,7.52
2024-04-18T21:40:15.771Z,7.42
2024-04-18T21:42:42.843Z,7.56
2024-04-18T21:45:09.996Z,7.62
2024-04-18T21:47:37.177Z,7.33
2024-04-18T21:50:04.653Z,7.41
2024-04-18T21:52:31.639Z,7.04
2024-04-18T21:54:58.658Z,7.42
2024-04-18T21:57:26.018Z,7.10
2024-04-18T21:59:53.273Z,7.40
2024-04-18T22:02:20.317Z,7.11
2024-04-18T22:04:48.217Z,7.38
2024-04-18T22:07:15.191Z,7.47
2024-04-18T22:09:42.220Z,7.43
2024-04-18T22:12:09.639Z,7.25
2024-04-18T22:14:36.667Z,7.17
2024-04-18T22:17:03.702Z,7.20
2024-04-18T22:19:30.776Z,7.05
2024-04-18T22:21:57.826Z,6.96
2024-04-18T22:24:24.853Z,7.15
2024-04-18T22:26:51.854Z,7.17
2024-04-18T22:29:18.805Z,7.15
2024-04-18T22:31:45.750Z,7.28
2024-04-18T22:34:24.423Z,7.31
2024-04-18T22:36:55.316Z,7.31
2024-04-18T22:39:22.410Z,7.26
2024-04-18T22:41:49.459Z,7.22
2024-04-18T22:44:16.445Z,7.09
2024-04-18T22:46:43.427Z,7.16
2024-04-18T22:49:10.454Z,7.20
2024-04-18T22:51:37.452Z,6.96
2024-04-18T22:54:04.568Z,7.19
2024-04-18T22:56:31.586Z,7.25
2024-04-18T22:58:58.559Z,7.18
2024-04-18T23:01:25.675Z,7.38
2024-04-18T23:03:52.778Z,7.34
2024-04-18T23:06:20.413Z,7.31
2024-04-18T23:08:47.401Z,7.32
2024-04-18T23:11:14.967Z,7.24
2024-04-18T23:13:42.087Z,7.36
2024-04-18T23:16:09.297Z,7.40
2024-04-18T23:18:36.566Z,7.17
2024-04-18T23:21:03.875Z,7.41
2024-04-18T23:23:30.845Z,7.25
2024-04-18T23:25:57.785Z,7.37
2024-04-18T23:28:24.756Z,7.45
2024-04-18T23:30:51.954Z,6.94
2024-04-18T23:33:19.038Z,7.38
2024-04-18T23:35:46.331Z,7.51
2024-04-18T23:38:13.448Z,7.52
2024-04-18T23:40:40.398Z,7.64
2024-04-18T23:43:07.376Z,7.51
2024-04-18T23:45:34.817Z,7.67
2024-04-18T23:48:02.043Z,7.74
2024-04-18T23:50:29.040Z,7.69
2024-04-18T23:52:56.025Z,7.75
2024-04-18T23:55:23.055Z,7.86
2024-04-18T23:57:50.070Z,7.58
